トビリシ の空港の天気 - METARとTAF

トビリシ国際空港 ( UGTB / TBS ) - ジョージア トビリシ
飛行場実況気象(Metar)
観測時間08/25 23:00 GET (08/25 19:00 UTC)
風向・風速北西 8m/s
視程10km以上
天気現象
なし
気温25℃
湿度57%
気圧1018hPa
METARUGTB 251900Z 32016KT CAVOK 25/16 Q1018 NOSIG
過去の天気等 Google飛行場航空写真 Wunderground天気予報

過去48時間のMETAR

飛行場予報(TAF)
発表時間: 8/25 21:00 GET (8/25 17:00 UTC)
予報対象時間: 25日22時 GET ~ 26日22時 GET
風向・風速北西 9m/s
視程10km以上
全天の4割程度の積乱雲 雲底高度 1520m
25日22時 GET ~ 26日3時 GET に 確率 40% で一時的に
風向・風速不定 12m/s
天気現象雷雨
全天の8割程度の積乱雲 雲底高度 1520m
26日10時 GET ~ 26日12時 GET に徐々に
視程10km以上
なし
TAF UGTB 251700Z 2518/2618 32017KT 9999 SCT050CB TX33/2612Z TN21/2603Z
PROB40 TEMPO 2518/2523 VRB23KT TSRA BKN050CB
BECMG 2606/2608 CAVOK